nws-alerts: Checking more than four warning/county codes can delay the loading of your pages. You should use a cron job to get the data.

Nearby METAR Weather Reports

 

KETB - West Bend, WI
Distance from station: E 4mi, 6km
Updated: 02/27/2021 12:35am
Light snow, Overcast
Light snow, Overcast
 Wind from SW
Wind: SW 3 mph , 6 km/h
Temperature: 32°F , 0°C
Dew Point: 30°F , -1°C
Humidity: 93%
Barometer: 29.82 inHg , 1009.8 hPa
Summary: Light Snow
Clouds: Overcast
Visibility: 4 miles , 6 km
Cloud details: Partly cloudy 1100 ft
Mostly cloudy 2900 ft
Overcast 4200 ft
2021/02/27 06:35 KETB 270635Z AUTO 23003KT 4SM -SN SCT011 BKN029 OVC042 00/M01 A2982 RMK AO2
KFLD - Fond Du Lac, WI
Distance from station: W 34mi, 54km
Updated: 02/27/2021 12:28am
Overcast
Overcast
 Wind from S
Wind: S 7 mph , 11 km/h
Temperature: 34°F , 1°C
Wind Chill: 28°F , -2°C
Dew Point: 28°F , -2°C
Humidity: 81%
Barometer: 29.81 inHg , 1009.5 hPa
Clouds: Overcast
Visibility: 9 miles , 14 km
Cloud details: Partly cloudy 2500 ft
Overcast 10000 ft
2021/02/27 06:28 KFLD 270628Z AUTO 18006KT 9SM SCT025 OVC100 01/M02 A2981 RMK AO2 SNE20 P0000 T00111022 $
 
KSBM - Sheboygan, WI
Distance from station: NE 36mi, 57km
Updated: 02/26/2021 11:53pm
Overcast
Overcast
 Wind from S
Wind: S 12 mph , 19 km/h
Temperature: 36°F , 2°C
Wind Chill: 28°F , -2°C
Dew Point: 27°F , -3°C
Humidity: 70%
Barometer: 29.83 inHg , 1010.2 hPa
Clouds: Overcast
Visibility: 8 miles , 13 km
Cloud details: Mostly cloudy 5000 ft
Overcast 7500 ft
2021/02/27 05:53 KSBM 270553Z AUTO 18010KT 8SM BKN050 OVC075 02/M03 A2983 RMK AO2 SNB41E52 SLP108 P0000 60000 T00171028 10022 20011 400331089 56015
KMKE - Milwaukee, WI
Distance from station: S 44mi, 70km
Updated: 02/27/2021 12:45am
Overcast
Overcast
 Wind from WSW
Wind: WSW 5 mph , 7 km/h
Temperature: 37°F , 3°C
Wind Chill: 33°F , 1°C
Dew Point: 27°F , -3°C
Humidity: 65%
Barometer: 29.83 inHg , 1010.2 hPa
Clouds: Overcast
Visibility: 10 miles , 16 km
Cloud details: Partly cloudy 2000 ft
Mostly cloudy 4200 ft
Overcast 7500 ft
2021/02/27 06:45 KMKE 270645Z 24004KT 10SM SCT020 BKN042 OVC075 03/M03 A2983 RMK AO2 T00281033
 
KOSH - Oshkosh, WI
Distance from station: WNW 52mi, 83km
Updated: 02/26/2021 11:53pm
Overcast
Overcast
 Wind from SSW
Wind: SSW 16 mph , 26 km/h, Gust: 24 mph , 39 km/h
Temperature: 34°F , 1°C
Wind Chill: 24°F , -4°C
Dew Point: 27°F , -3°C
Humidity: 75%
Barometer: 29.81 inHg , 1009.5 hPa
Clouds: Overcast
Visibility: 9 miles , 14 km
Cloud details: Overcast 4600 ft
2021/02/27 05:53 KOSH 270553Z AUTO 20014G21KT 9SM OVC046 01/M03 A2981 RMK AO2 SLP106 T00111033 10022 20000 400391078 57008
KENW - Kenosha, WI
Distance from station: SSE 69mi, 111km
Updated: 02/26/2021 11:53pm
Overcast
Overcast
 Wind from WSW
Wind: WSW 5 mph , 7 km/h
Temperature: 36°F , 2°C
Wind Chill: 32°F , 0°C
Dew Point: 28°F , -2°C
Humidity: 75%
Barometer: 29.82 inHg , 1009.8 hPa
Clouds: Overcast
Visibility: 8 miles , 13 km
Cloud details: Overcast 5500 ft
2021/02/27 05:53 KENW 270553Z AUTO 24004KT 8SM OVC055 02/M02 A2982 RMK AO2 SLP105 T00221022 10033 20022 400441050 58008
 
KMSN - Madison, WI
Distance from station: SW 69mi, 111km
Updated: 02/26/2021 11:53pm
Mist, Overcast
Mist, Overcast
 Wind from S
Wind: S 7 mph , 11 km/h
Temperature: 34°F , 1°C
Wind Chill: 28°F , -2°C
Dew Point: 32°F , 0°C
Humidity: 93%
Barometer: 29.80 inHg , 1009.1 hPa
Summary: Mist
Clouds: Overcast
Visibility: 6 miles , 10 km
Cloud details: Few Clouds 900 ft
Overcast 10000 ft
2021/02/27 05:53 KMSN 270553Z AUTO 19006KT 6SM BR FEW009 OVC100 01/00 A2980 RMK AO2 RAE01SNE01 SLP100 P0000 60000 T00060000 10017 20006 400391072 58007
KSAW - Marquette, MI
Distance from station: N 262mi, 421km
Updated: 02/27/2021 12:38am
Partly cloudy
Partly cloudy
 Wind from SSW
Wind: SSW 16 mph , 26 km/h
Temperature: 30°F , -1°C
Wind Chill: 19°F , -7°C
Dew Point: 21°F , -6°C
Humidity: 69%
Barometer: 29.72 inHg , 1006.4 hPa
Clouds: Partly cloudy
Visibility: 10 miles , 16 km
Cloud details: Partly cloudy 12000 ft
2021/02/27 06:38 KSAW 270638Z AUTO 20014KT 10SM SCT120 M01/M06 A2972 RMK AO2 T10101060
 
KIMT - Iron Mountain, MI
Distance from station: NNW 201mi, 323km
Updated: 02/26/2021 11:54pm
Clear
Clear
 Wind from S
Wind: S 10 mph , 17 km/h, Gust: 22 mph , 35 km/h
Temperature: 30°F , -1°C
Wind Chill: 21°F , -6°C
Dew Point: 19°F , -7°C
Humidity: 64%
Barometer: 29.73 inHg , 1006.8 hPa
Clouds: Clear
Visibility: 10 miles , 16 km
2021/02/27 05:54 KIMT 270554Z AUTO 17009G19KT 10SM CLR M01/M07 A2973 RMK AO2 SLP080 T10061067 10022 21006 400501106 58020
KGRB - Green Bay, WI
Distance from station: NNW 87mi, 140km
Updated: 02/26/2021 11:53pm
Overcast
Overcast
 Wind from S
Wind: S 8 mph , 13 km/h
Temperature: 36°F , 2°C
Wind Chill: 30°F , -1°C
Dew Point: 25°F , -4°C
Humidity: 65%
Barometer: 29.81 inHg , 1009.5 hPa
Clouds: Overcast
Visibility: 10 miles , 16 km
Cloud details: Mostly cloudy 8000 ft
Overcast 10000 ft
2021/02/27 05:53 KGRB 270553Z AUTO 19007KT 10SM BKN080 OVC100 02/M04 A2981 RMK AO2 SLP103 T00171039 10028 20011 400501061 56013 $
 
KAUW - Wausau, WI
Distance from station: NW 155mi, 249km
Updated: 02/26/2021 11:54pm
Partly cloudy
Partly cloudy
 Wind from SSE
Wind: SSE 9 mph , 15 km/h
Temperature: 30°F , -1°C
Wind Chill: 22°F , -6°C
Dew Point: 21°F , -6°C
Humidity: 69%
Barometer: 29.73 inHg , 1006.8 hPa
Clouds: Partly cloudy
Visibility: 10 miles , 16 km
Cloud details: Partly cloudy 10000 ft
2021/02/27 05:54 KAUW 270554Z AUTO 15008KT 10SM SCT100 M01/M06 A2973 RMK AO2 SLP085 T10061056 10022 21006 400331072 58009
KORD - Chicago O'Hare, IL
Distance from station: S 113mi, 181km
Updated: 02/27/2021 12:11am
Light rain, Overcast
Light rain, Overcast
 Wind from S
Wind: S 6 mph , 9 km/h
Temperature: 36°F , 2°C
Wind Chill: 31°F , -1°C
Dew Point: 30°F , -1°C
Humidity: 81%
Barometer: 29.82 inHg , 1009.8 hPa
Summary: Light rain
Clouds: Overcast
Visibility: 7 miles , 11 km
Cloud details: Overcast 2400 ft
2021/02/27 06:11 KORD 270611Z 17005KT 7SM -RA OVC024 02/M01 A2982 RMK AO2 P0000 T00221006
 
KVOK - WIANG Volk Field, Camp Douglas, WI
Distance from station: WNW 120mi, 193km
Updated: 02/26/2021 11:56pm
Clear
Clear
 Wind from S
Wind: S 6 mph , 9 km/h
Temperature: 34°F , 1°C
Wind Chill: 29°F , -2°C
Dew Point: 30°F , -1°C
Humidity: 87%
Barometer: 29.77 inHg , 1008.1 hPa
Clouds: Clear
Visibility: 10 miles , 16 km
2021/02/27 05:56 KVOK 270556Z AUTO 17005KT 10SM CLR 01/M01 A2977 RMK AO2 SLP092 T00081013 10025 20006 400531123 57009
KLNR - Lone Rock, WI
Distance from station: W 114mi, 183km
Updated: 02/26/2021 11:56pm
Few Clouds
Few Clouds
 Wind from calm
Wind: Calm
Temperature: 30°F , -1°C
Dew Point: 27°F , -3°C
Humidity: 86%
Barometer: 29.81 inHg , 1009.5 hPa
Clouds: Few Clouds
Visibility: 8 miles , 13 km
Cloud details: Few Clouds 12000 ft
2021/02/27 05:56 KLNR 270556Z AUTO 00000KT 8SM FEW120 M01/M03 A2981 RMK AO2 SLP096 T10061028 10017 21006 400391117 58007